Time;durP1;ratioP1;P1;durP2;ratioP2;P2;SDS_P1;SDS_P2;PMS_P1;PMS_P2;Temp;Humidity;BMP_temperature;BMP_pressure;BME280_temperature;BME280_humidity;BME280_pressure;Samples;Min_cycle;Max_cycle;Signal;HPM_P1;HPM_P2
2022/08/05 00:00:15;;;;;;;;;2.00;2.00;;;;;;;;5049514;28;8889;-84
2022/08/05 00:02:42;;;;;;;;;3.00;3.00;;;;;;;;5023199;28;8898;-89
2022/08/05 00:05:10;;;;;;;;;2.00;2.00;;;;;;;;5044127;28;8894;-90
2022/08/05 00:07:37;;;;;;;;;3.00;3.00;;;;;;;;5043410;28;8855;-89
2022/08/05 00:10:05;;;;;;;;;3.75;3.75;;;;;;;;5043554;28;8904;-88
2022/08/05 00:12:32;;;;;;;;;2.00;2.00;;;;;;;;5044593;28;8860;-88
2022/08/05 00:15:01;;;;;;;;;4.25;3.00;;;;;;;;5043277;28;8901;-90
2022/08/05 00:17:28;;;;;;;;;3.00;3.00;;;;;;;;5038250;28;8898;-85
2022/08/05 00:19:56;;;;;;;;;2.75;2.75;;;;;;;;5039251;28;8986;-89
2022/08/05 00:22:23;;;;;;;;;3.25;3.25;;;;;;;;5026026;28;8852;-87
2022/08/05 00:24:51;;;;;;;;;3.00;3.00;;;;;;;;5042664;28;9594;-83
2022/08/05 00:27:18;;;;;;;;;4.75;4.50;;;;;;;;5023227;28;8860;-81
2022/08/05 00:29:45;;;;;;;;;3.00;3.00;;;;;;;;5043548;28;8970;-82
2022/08/05 00:32:14;;;;;;;;;3.00;3.00;;;;;;;;5041216;28;8926;-85
2022/08/05 00:34:43;;;;;;;;;3.75;3.75;;;;;;;;5034071;28;8887;-86
2022/08/05 00:37:17;;;;;;;;;4.00;4.00;;;;;;;;5039826;28;8868;-84
2022/08/05 00:39:44;;;;;;;;;0.00;0.00;;;;;;;;5047385;28;8990;-86
2022/08/05 00:42:11;;;;;;;;;5.75;3.00;;;;;;;;5045798;28;8893;-87
2022/08/05 00:44:39;;;;;;;;;2.75;2.75;;;;;;;;5037297;28;8902;-84
2022/08/05 00:47:09;;;;;;;;;3.50;3.50;;;;;;;;5042341;28;8968;-85
2022/08/05 00:49:37;;;;;;;;;3.00;3.00;;;;;;;;5045804;28;8876;-85
2022/08/05 00:52:05;;;;;;;;;4.00;4.00;;;;;;;;5046509;28;8852;-86
2022/08/05 00:54:43;;;;;;;;;5.75;3.25;;;;;;;;5044436;28;8860;-86
2022/08/05 00:57:13;;;;;;;;;3.00;3.00;;;;;;;;5013060;28;8967;-85
2022/08/05 00:59:40;;;;;;;;;3.25;3.25;;;;;;;;5028856;28;9716;-84
2022/08/05 01:02:08;;;;;;;;;3.00;3.00;;;;;;;;5045282;28;8843;-86
2022/08/05 01:04:37;;;;;;;;;3.00;1.00;;;;;;;;5045980;28;8872;-86
2022/08/05 01:07:05;;;;;;;;;5.75;4.00;;;;;;;;5045630;28;8868;-84
2022/08/05 01:09:32;;;;;;;;;3.00;2.00;;;;;;;;5044140;28;8965;-85
2022/08/05 01:12:03;;;;;;;;;2.00;2.00;;;;;;;;5045027;28;8899;-85
2022/08/05 01:14:35;;;;;;;;;3.00;3.00;;;;;;;;5028405;28;8876;-84
2022/08/05 01:17:06;;;;;;;;;5.00;3.75;;;;;;;;5042192;28;8883;-85
2022/08/05 01:19:39;;;;;;;;;2.75;2.75;;;;;;;;5045903;28;8880;-85
2022/08/05 01:22:15;;;;;;;;;2.00;2.00;;;;;;;;5044288;28;8856;-85
2022/08/05 01:33:22;;;;;;;;;3.25;3.25;;;;;;;;5873721;22;8899;-86
2022/08/05 01:35:50;;;;;;;;;3.00;3.00;;;;;;;;4984388;28;8877;-84
2022/08/05 01:38:19;;;;;;;;;6.00;3.00;;;;;;;;4986541;28;8908;-86
2022/08/05 01:40:47;;;;;;;;;4.75;3.75;;;;;;;;4984038;28;8888;-85
2022/08/05 01:43:15;;;;;;;;;3.00;3.00;;;;;;;;4986368;28;8873;-87
2022/08/05 01:45:42;;;;;;;;;2.25;2.25;;;;;;;;4985399;28;9017;-86
2022/08/05 01:48:10;;;;;;;;;3.25;3.25;;;;;;;;4981748;28;8875;-87
2022/08/05 01:50:51;;;;;;;;;3.00;3.00;;;;;;;;4985860;28;8911;-86
2022/08/05 01:53:21;;;;;;;;;3.00;3.00;;;;;;;;4985687;28;8986;-86
2022/08/05 01:55:49;;;;;;;;;6.25;3.00;;;;;;;;4985037;28;8861;-87
2022/08/05 01:58:18;;;;;;;;;3.00;3.00;;;;;;;;4984428;28;8873;-85
2022/08/05 02:00:50;;;;;;;;;3.75;3.75;;;;;;;;4985971;28;8776;-86
2022/08/05 02:03:20;;;;;;;;;4.00;2.25;;;;;;;;4993508;28;8901;-86
2022/08/05 02:05:54;;;;;;;;;2.00;2.00;;;;;;;;4986179;28;8960;-86
2022/08/05 02:08:21;;;;;;;;;5.50;4.00;;;;;;;;4991813;28;9006;-86
2022/08/05 02:10:51;;;;;;;;;3.75;3.75;;;;;;;;4986146;28;9013;-87
2022/08/05 02:13:29;;;;;;;;;5.75;4.00;;;;;;;;4985455;28;8871;-86
2022/08/05 02:16:03;;;;;;;;;2.75;2.75;;;;;;;;4985459;28;9692;-86
2022/08/05 02:18:34;;;;;;;;;4.00;4.00;;;;;;;;4992656;28;8852;-86
2022/08/05 02:21:07;;;;;;;;;4.50;3.50;;;;;;;;4985751;28;9001;-87
2022/08/05 02:23:38;;;;;;;;;4.25;3.75;;;;;;;;4985674;28;8883;-86
2022/08/05 02:26:08;;;;;;;;;3.25;3.25;;;;;;;;4993326;28;8911;-86
2022/08/05 02:32:09;;;;;;;;;6.25;4.00;;;;;;;;4886930;29;8886;-85
2022/08/05 02:34:38;;;;;;;;;4.75;4.75;;;;;;;;4992099;28;9749;-86
2022/08/05 02:37:57;;;;;;;;;5.00;4.50;;;;;;;;4984996;28;8933;-86
2022/08/05 02:40:29;;;;;;;;;4.75;4.25;;;;;;;;4983966;28;8997;-85
2022/08/05 02:42:57;;;;;;;;;3.75;3.75;;;;;;;;4992156;28;9006;-85
2022/08/05 02:45:28;;;;;;;;;5.00;3.75;;;;;;;;4985943;28;8863;-86
2022/08/05 02:47:59;;;;;;;;;4.25;4.25;;;;;;;;4985031;28;9437;-85
2022/08/05 02:50:27;;;;;;;;;4.00;4.00;;;;;;;;4985456;28;8937;-85
2022/08/05 02:55:44;;;;;;;;;6.00;5.00;;;;;;;;4979632;28;8895;-85
2022/08/05 02:58:14;;;;;;;;;4.75;4.75;;;;;;;;4984962;28;8867;-85
2022/08/05 03:00:44;;;;;;;;;3.25;3.25;;;;;;;;4983301;28;8798;-85
2022/08/05 03:03:14;;;;;;;;;4.00;4.00;;;;;;;;5007881;28;8886;-85
2022/08/05 03:05:42;;;;;;;;;3.75;3.75;;;;;;;;4988574;28;8875;-85
2022/08/05 03:08:11;;;;;;;;;3.25;3.25;;;;;;;;4997594;28;8896;-85
2022/08/05 03:10:38;;;;;;;;;4.25;4.25;;;;;;;;4989899;28;8862;-85
2022/08/05 03:13:14;;;;;;;;;4.50;4.50;;;;;;;;4983884;28;9009;-85
2022/08/05 03:15:54;;;;;;;;;3.75;3.25;;;;;;;;4984536;28;8871;-85
2022/08/05 03:18:22;;;;;;;;;4.00;4.00;;;;;;;;4980510;28;8980;-85
2022/08/05 03:20:49;;;;;;;;;3.25;3.25;;;;;;;;4984508;28;8875;-86
2022/08/05 03:23:16;;;;;;;;;4.00;4.00;;;;;;;;4983018;28;8903;-85
2022/08/05 03:25:44;;;;;;;;;4.25;4.25;;;;;;;;4993419;28;8883;-86
2022/08/05 03:31:21;;;;;;;;;3.75;3.75;;;;;;;;4938615;28;8912;-86
2022/08/05 03:33:49;;;;;;;;;4.00;4.00;;;;;;;;4950181;28;9003;-86
2022/08/05 03:36:19;;;;;;;;;5.25;3.00;;;;;;;;4980956;28;8995;-86
2022/08/05 03:39:35;;;;;;;;;2.75;2.75;;;;;;;;4987004;28;8903;-86
2022/08/05 03:42:02;;;;;;;;;3.00;3.00;;;;;;;;4982957;28;8981;-86
2022/08/05 03:44:41;;;;;;;;;4.00;4.00;;;;;;;;4983622;28;8887;-86
2022/08/05 03:47:20;;;;;;;;;6.00;4.00;;;;;;;;4993603;28;8895;-86
2022/08/05 03:50:01;;;;;;;;;;;;;;;;;;;;;
2022/08/05 03:52:32;;;;;;;;;6.00;4.75;;;;;;;;4960775;28;8851;-86
2022/08/05 04:08:37;;;;;;;;;2.25;2.25;;;;;;;;4920482;29;8831;-86
2022/08/05 04:14:43;;;;;;;;;4.25;4.25;;;;;;;;4929010;29;8843;-86
2022/08/05 04:17:12;;;;;;;;;4.00;4.00;;;;;;;;4923187;29;8877;-87
2022/08/05 04:22:24;;;;;;;;;3.00;3.00;;;;;;;;4949309;28;9084;-86
2022/08/05 04:24:57;;;;;;;;;4.00;4.00;;;;;;;;4992487;28;8875;-86
2022/08/05 04:27:24;;;;;;;;;3.25;3.25;;;;;;;;4999181;28;8874;-86
2022/08/05 04:29:53;;;;;;;;;3.25;3.00;;;;;;;;4986078;28;8893;-87
2022/08/05 04:32:21;;;;;;;;;4.00;4.00;;;;;;;;4985902;28;8829;-87
2022/08/05 04:34:48;;;;;;;;;3.00;3.00;;;;;;;;4994045;28;8903;-85
2022/08/05 04:39:57;;;;;;;;;2.75;2.75;;;;;;;;4981610;28;8902;-86
2022/08/05 04:42:24;;;;;;;;;3.75;3.00;;;;;;;;4986406;28;8890;-85
2022/08/05 04:44:53;;;;;;;;;3.50;3.50;;;;;;;;4986628;28;8871;-86
2022/08/05 04:47:21;;;;;;;;;2.75;2.25;;;;;;;;4980074;28;8892;-86
2022/08/05 04:49:48;;;;;;;;;3.00;3.00;;;;;;;;4970516;28;8875;-86
2022/08/05 04:52:15;;;;;;;;;4.25;3.75;;;;;;;;4986102;28;8879;-85
2022/08/05 04:54:43;;;;;;;;;3.75;3.75;;;;;;;;4987877;28;8851;-86
2022/08/05 04:57:10;;;;;;;;;4.25;4.25;;;;;;;;4985725;28;9752;-85
2022/08/05 04:59:38;;;;;;;;;5.00;4.50;;;;;;;;4985822;28;9675;-85
2022/08/05 05:02:07;;;;;;;;;4.75;4.75;;;;;;;;4990352;28;8823;-86
2022/08/05 05:04:34;;;;;;;;;4.50;4.25;;;;;;;;4990619;28;9641;-86
2022/08/05 05:07:02;;;;;;;;;4.75;4.75;;;;;;;;4985932;28;9672;-85
2022/08/05 05:13:38;;;;;;;;;4.50;4.50;;;;;;;;4988026;28;9399;-84
2022/08/05 05:18:51;;;;;;;;;5.00;3.00;;;;;;;;4966778;28;8942;-85
2022/08/05 05:21:19;;;;;;;;;8.00;5.25;;;;;;;;4988168;28;8867;-85
2022/08/05 05:29:32;;;;;;;;;3.75;3.75;;;;;;;;4967629;28;8835;-85
2022/08/05 05:35:27;;;;;;;;;3.00;3.00;;;;;;;;4906473;29;8830;-84
2022/08/05 05:37:59;;;;;;;;;4.50;4.50;;;;;;;;4961818;28;8875;-86
2022/08/05 05:43:35;;;;;;;;;4.50;4.50;;;;;;;;4901538;29;8951;-86
2022/08/05 05:46:03;;;;;;;;;4.00;4.00;;;;;;;;4919633;28;8885;-86
2022/08/05 05:52:22;;;;;;;;;4.50;4.50;;;;;;;;4986663;28;9622;-86
2022/08/05 05:58:49;;;;;;;;;3.00;3.00;;;;;;;;4984063;28;8819;-87
2022/08/05 06:01:16;;;;;;;;;5.00;4.50;;;;;;;;4999422;28;8926;-85
2022/08/05 06:03:44;;;;;;;;;5.00;5.00;;;;;;;;4990108;28;8864;-85
2022/08/05 06:12:16;;;;;;;;;6.25;3.25;;;;;;;;4937206;28;9648;-85
2022/08/05 06:25:27;;;;;;;;;4.00;4.00;;;;;;;;4945705;28;8962;-85
2022/08/05 06:27:57;;;;;;;;;5.25;4.50;;;;;;;;4930066;28;8859;-85
2022/08/05 06:33:58;;;;;;;;;6.00;4.50;;;;;;;;4896262;29;9003;-85
2022/08/05 06:36:28;;;;;;;;;5.25;5.25;;;;;;;;4964892;28;8894;-86
2022/08/05 06:38:55;;;;;;;;;4.00;4.00;;;;;;;;4984923;28;8891;-86
2022/08/05 06:41:23;;;;;;;;;7.50;5.75;;;;;;;;4986147;28;8867;-86
2022/08/05 06:43:51;;;;;;;;;5.75;5.00;;;;;;;;4984096;28;8890;-86
2022/08/05 06:46:19;;;;;;;;;6.00;6.00;;;;;;;;4994743;28;8865;-85
2022/08/05 06:48:46;;;;;;;;;7.00;5.75;;;;;;;;4983747;28;8905;-86
2022/08/05 06:51:13;;;;;;;;;7.50;5.25;;;;;;;;4985458;28;8887;-86
2022/08/05 06:53:58;;;;;;;;;5.25;5.25;;;;;;;;4986476;28;9017;-86
2022/08/05 06:59:13;;;;;;;;;5.25;5.25;;;;;;;;4926638;28;9491;-86
2022/08/05 07:01:42;;;;;;;;;5.50;5.50;;;;;;;;4941958;28;8805;-86
2022/08/05 07:04:10;;;;;;;;;7.50;6.25;;;;;;;;4912368;28;8875;-87
2022/08/05 07:06:37;;;;;;;;;4.75;4.75;;;;;;;;4938705;28;8910;-86
2022/08/05 07:09:05;;;;;;;;;4.50;4.00;;;;;;;;4944161;28;8884;-86
2022/08/05 07:11:36;;;;;;;;;6.75;5.25;;;;;;;;4942582;28;8880;-87
2022/08/05 07:19:49;;;;;;;;;7.75;6.00;;;;;;;;4934744;28;8895;-87
2022/08/05 07:22:16;;;;;;;;;6.75;6.00;;;;;;;;4916436;28;8900;-86
2022/08/05 07:24:43;;;;;;;;;8.00;8.00;;;;;;;;4942630;28;8890;-86
2022/08/05 07:27:17;;;;;;;;;5.25;5.00;;;;;;;;4944392;28;8915;-86
2022/08/05 07:29:44;;;;;;;;;7.50;7.50;;;;;;;;4942943;28;9030;-87
2022/08/05 07:38:19;;;;;;;;;8.50;7.50;;;;;;;;4940439;28;8987;-88
2022/08/05 07:41:27;;;;;;;;;9.75;9.75;;;;;;;;4943617;28;8859;-89
2022/08/05 07:54:11;;;;;;;;;9.25;7.25;;;;;;;;4948016;28;9621;-88
2022/08/05 07:56:40;;;;;;;;;12.25;9.00;;;;;;;;4946250;28;8883;-90
2022/08/05 07:59:09;;;;;;;;;11.75;10.25;;;;;;;;4947798;28;8859;-90
2022/08/05 08:01:37;;;;;;;;;8.25;8.25;;;;;;;;4944702;28;9605;-85
2022/08/05 08:04:04;;;;;;;;;9.00;9.00;;;;;;;;4943197;28;8909;-77
2022/08/05 08:06:32;;;;;;;;;7.00;7.00;;;;;;;;4949167;28;8859;-75
2022/08/05 08:08:59;;;;;;;;;11.40;9.80;;;;;;;;4984785;28;8879;-74
2022/08/05 08:11:28;;;;;;;;;11.80;9.20;;;;;;;;4986710;28;9721;-74
2022/08/05 08:13:56;;;;;;;;;11.60;11.60;;;;;;;;4982773;28;8871;-75
2022/08/05 08:16:23;;;;;;;;;11.40;10.60;;;;;;;;4985642;28;8889;-74
2022/08/05 08:18:50;;;;;;;;;14.20;14.00;;;;;;;;4985561;28;8883;-74
2022/08/05 08:21:18;;;;;;;;;15.60;14.20;;;;;;;;4986170;28;8883;-74
2022/08/05 08:23:47;;;;;;;;;10.80;10.80;;;;;;;;4986446;28;8887;-74
2022/08/05 08:26:14;;;;;;;;;9.00;9.00;;;;;;;;4984159;28;8878;-75
2022/08/05 08:28:43;;;;;;;;;11.80;10.20;;;;;;;;4985578;28;8867;-74
2022/08/05 08:31:11;;;;;;;;;13.00;12.00;;;;;;;;4983925;28;8823;-74
2022/08/05 08:33:39;;;;;;;;;11.00;11.00;;;;;;;;4985721;28;8901;-75
2022/08/05 08:36:07;;;;;;;;;9.60;9.60;;;;;;;;4985323;28;8862;-75
2022/08/05 08:38:35;;;;;;;;;14.20;13.80;;;;;;;;4983239;28;8895;-75
2022/08/05 08:41:06;;;;;;;;;14.80;13.00;;;;;;;;4985372;28;8875;-75
2022/08/05 08:43:34;;;;;;;;;13.60;13.00;;;;;;;;4984214;28;8855;-75
2022/08/05 08:46:04;;;;;;;;;15.40;15.00;;;;;;;;4985392;28;8895;-74
2022/08/05 08:48:32;;;;;;;;;12.20;12.20;;;;;;;;4984076;28;8877;-74
2022/08/05 08:51:00;;;;;;;;;21.20;15.60;;;;;;;;4985766;28;8933;-74
2022/08/05 08:53:28;;;;;;;;;16.80;16.80;;;;;;;;4984436;28;9503;-74
2022/08/05 08:55:56;;;;;;;;;15.60;15.60;;;;;;;;4983232;28;9671;-74
2022/08/05 08:58:23;;;;;;;;;20.40;18.60;;;;;;;;4984905;28;8982;-74
2022/08/05 09:00:51;;;;;;;;;17.60;15.80;;;;;;;;4984074;28;8831;-74
2022/08/05 09:03:22;;;;;;;;;14.60;12.60;;;;;;;;4984734;28;8863;-75
2022/08/05 09:05:49;;;;;;;;;13.40;13.40;;;;;;;;4984280;28;8887;-74
2022/08/05 09:08:18;;;;;;;;;20.20;18.00;;;;;;;;4982977;28;8867;-74
2022/08/05 09:10:45;;;;;;;;;23.00;20.20;;;;;;;;4984148;28;9658;-75
2022/08/05 09:13:14;;;;;;;;;17.00;17.00;;;;;;;;4985628;28;8878;-76
2022/08/05 09:15:41;;;;;;;;;16.60;15.80;;;;;;;;4985075;28;8860;-79
2022/08/05 09:18:11;;;;;;;;;25.20;24.40;;;;;;;;4987465;28;8859;-74
2022/08/05 09:20:43;;;;;;;;;18.60;17.60;;;;;;;;4985502;28;8842;-74
2022/08/05 09:23:12;;;;;;;;;23.40;23.40;;;;;;;;4984427;28;8997;-75
2022/08/05 09:25:40;;;;;;;;;22.80;22.40;;;;;;;;4986322;28;9617;-74
2022/08/05 09:28:16;;;;;;;;;21.20;19.60;;;;;;;;4984930;28;8855;-74
2022/08/05 09:30:46;;;;;;;;;20.60;20.60;;;;;;;;4980072;28;8854;-73
2022/08/05 09:33:14;;;;;;;;;17.40;16.20;;;;;;;;4985855;28;9006;-76
2022/08/05 09:35:55;;;;;;;;;16.80;16.80;;;;;;;;4985086;28;9018;-74
2022/08/05 09:38:23;;;;;;;;;16.00;14.00;;;;;;;;4984045;28;9708;-73
2022/08/05 09:40:50;;;;;;;;;14.00;14.00;;;;;;;;4984341;28;8882;-74
2022/08/05 09:43:29;;;;;;;;;17.80;15.40;;;;;;;;4986149;28;8874;-74
2022/08/05 09:45:57;;;;;;;;;15.60;15.60;;;;;;;;4985582;28;8879;-74
2022/08/05 09:48:28;;;;;;;;;20.80;18.80;;;;;;;;4984871;28;8883;-74
2022/08/05 09:50:58;;;;;;;;;19.00;16.60;;;;;;;;4985858;28;8867;-74
2022/08/05 09:53:27;;;;;;;;;19.80;18.80;;;;;;;;4984073;28;8895;-74
2022/08/05 09:55:57;;;;;;;;;19.60;19.60;;;;;;;;4986461;28;8893;-73
2022/08/05 09:58:24;;;;;;;;;18.20;16.60;;;;;;;;4984185;28;8955;-73
2022/08/05 10:00:58;;;;;;;;;13.00;13.00;;;;;;;;4985228;28;8803;-73
2022/08/05 10:03:26;;;;;;;;;17.20;15.60;;;;;;;;4984815;28;8863;-72
2022/08/05 10:06:05;;;;;;;;;13.60;11.40;;;;;;;;4984943;28;8997;-73
2022/08/05 10:08:33;;;;;;;;;10.40;9.60;;;;;;;;4984640;28;8866;-73
2022/08/05 10:11:00;;;;;;;;;13.80;12.40;;;;;;;;4983662;28;8889;-72
2022/08/05 10:13:29;;;;;;;;;12.00;12.00;;;;;;;;4985418;28;8883;-72
2022/08/05 10:15:59;;;;;;;;;13.20;10.60;;;;;;;;4983642;28;8903;-72
2022/08/05 10:18:30;;;;;;;;;12.40;12.40;;;;;;;;4986070;28;8956;-72
2022/08/05 10:21:00;;;;;;;;;8.40;8.40;;;;;;;;4985373;28;8893;-72
2022/08/05 10:23:31;;;;;;;;;11.80;11.20;;;;;;;;4984616;28;8870;-72
2022/08/05 10:26:00;;;;;;;;;14.00;12.20;;;;;;;;4985343;28;9051;-71
2022/08/05 10:28:29;;;;;;;;;8.80;8.80;;;;;;;;4985033;28;8900;-72
2022/08/05 10:30:57;;;;;;;;;13.00;10.20;;;;;;;;4984909;28;8836;-73
2022/08/05 10:33:26;;;;;;;;;9.60;9.60;;;;;;;;4984509;28;9451;-73
2022/08/05 10:35:54;;;;;;;;;11.80;11.80;;;;;;;;4984387;28;8922;-73
2022/08/05 10:38:23;;;;;;;;;11.00;11.00;;;;;;;;4984808;28;8859;-72
2022/08/05 10:41:09;;;;;;;;;9.20;9.20;;;;;;;;4983830;28;9750;-72
2022/08/05 10:43:43;;;;;;;;;8.60;8.60;;;;;;;;4984766;28;8875;-72
2022/08/05 10:46:12;;;;;;;;;7.20;7.20;;;;;;;;4986953;28;8874;-72
2022/08/05 10:48:40;;;;;;;;;5.60;5.60;;;;;;;;4984318;28;8877;-73
2022/08/05 10:51:10;;;;;;;;;7.40;7.40;;;;;;;;4984753;28;8878;-73
2022/08/05 10:53:41;;;;;;;;;7.00;5.00;;;;;;;;4983587;28;8898;-73
2022/08/05 10:56:12;;;;;;;;;8.20;8.20;;;;;;;;4985137;28;8886;-72
2022/08/05 10:59:03;;;;;;;;;10.20;9.40;;;;;;;;4983558;28;8871;-73
2022/08/05 11:01:30;;;;;;;;;10.60;7.80;;;;;;;;4993340;28;8819;-72
2022/08/05 11:04:10;;;;;;;;;7.80;7.80;;;;;;;;4983961;28;8883;-73
2022/08/05 11:07:05;;;;;;;;;8.40;8.40;;;;;;;;4983306;28;8994;-73
2022/08/05 11:09:43;;;;;;;;;9.00;6.40;;;;;;;;4984247;28;8989;-73
2022/08/05 11:12:44;;;;;;;;;11.40;11.40;;;;;;;;4983002;28;8927;-73
2022/08/05 11:15:18;;;;;;;;;9.00;8.00;;;;;;;;4974703;28;8894;-72
2022/08/05 11:17:46;;;;;;;;;7.00;7.00;;;;;;;;4980693;28;8855;-73
2022/08/05 11:20:42;;;;;;;;;7.40;7.40;;;;;;;;4983071;28;8906;-73
2022/08/05 11:23:36;;;;;;;;;5.00;5.00;;;;;;;;4982756;28;8898;-73
2022/08/05 11:26:08;;;;;;;;;9.00;5.80;;;;;;;;4983797;28;8889;-75
2022/08/05 11:28:45;;;;;;;;;6.60;6.60;;;;;;;;4982161;28;8905;-72
2022/08/05 11:31:32;;;;;;;;;7.60;7.20;;;;;;;;4983774;28;8799;-72
2022/08/05 11:34:02;;;;;;;;;7.20;6.00;;;;;;;;4982832;28;8960;-73
2022/08/05 11:36:52;;;;;;;;;8.40;7.20;;;;;;;;4983858;28;8908;-73
2022/08/05 11:39:50;;;;;;;;;7.60;7.60;;;;;;;;4984551;28;8859;-72
2022/08/05 11:42:25;;;;;;;;;8.00;8.00;;;;;;;;4922082;29;8890;-73
2022/08/05 11:45:02;;;;;;;;;6.00;6.00;;;;;;;;4973134;28;8941;-73
2022/08/05 11:47:29;;;;;;;;;8.80;7.00;;;;;;;;4983429;28;8871;-73
2022/08/05 11:49:59;;;;;;;;;8.00;8.00;;;;;;;;4983308;28;8895;-73
2022/08/05 11:52:27;;;;;;;;;9.40;9.40;;;;;;;;4984139;28;8961;-73
2022/08/05 11:54:55;;;;;;;;;10.20;8.20;;;;;;;;4982748;28;8956;-73
2022/08/05 11:57:28;;;;;;;;;10.00;8.20;;;;;;;;4984330;28;9641;-73
2022/08/05 11:59:57;;;;;;;;;7.60;7.60;;;;;;;;4982793;28;8894;-74
2022/08/05 12:02:26;;;;;;;;;8.20;8.20;;;;;;;;4983331;28;8835;-73
2022/08/05 12:04:54;;;;;;;;;8.20;7.40;;;;;;;;4983267;28;8933;-73
2022/08/05 12:07:21;;;;;;;;;6.20;6.20;;;;;;;;4983056;28;8886;-73
2022/08/05 12:09:49;;;;;;;;;7.00;6.60;;;;;;;;4983668;28;9267;-73
2022/08/05 12:12:22;;;;;;;;;5.00;5.00;;;;;;;;4982441;28;9664;-74
2022/08/05 12:14:50;;;;;;;;;5.00;5.00;;;;;;;;4981836;28;8891;-72
2022/08/05 12:17:19;;;;;;;;;3.40;3.40;;;;;;;;4978907;28;8896;-73
2022/08/05 12:19:48;;;;;;;;;3.40;3.40;;;;;;;;4983623;28;8965;-73
2022/08/05 12:22:16;;;;;;;;;2.40;2.40;;;;;;;;4983221;28;8905;-73
2022/08/05 12:24:46;;;;;;;;;3.80;3.80;;;;;;;;4983193;28;8899;-74
2022/08/05 12:27:20;;;;;;;;;3.00;3.00;;;;;;;;4983110;28;8879;-73
2022/08/05 12:29:57;;;;;;;;;3.60;3.60;;;;;;;;4970701;28;8882;-73
2022/08/05 12:32:28;;;;;;;;;2.80;2.80;;;;;;;;4981554;28;11068;-73
2022/08/05 12:34:56;;;;;;;;;4.00;4.00;;;;;;;;4986238;28;9759;-73
2022/08/05 12:37:23;;;;;;;;;3.20;3.20;;;;;;;;4986597;28;9646;-72
2022/08/05 12:39:51;;;;;;;;;1.80;1.80;;;;;;;;4986832;28;9630;-72
2022/08/05 12:42:19;;;;;;;;;1.00;1.00;;;;;;;;4985979;28;8894;-74
2022/08/05 12:44:47;;;;;;;;;1.00;1.00;;;;;;;;4987101;28;8924;-73
2022/08/05 12:47:14;;;;;;;;;2.00;2.00;;;;;;;;4983306;28;8879;-71
2022/08/05 12:49:45;;;;;;;;;2.20;2.20;;;;;;;;4986388;28;8894;-73
2022/08/05 12:52:13;;;;;;;;;2.00;2.00;;;;;;;;4986088;28;8874;-72
2022/08/05 12:54:41;;;;;;;;;2.00;2.00;;;;;;;;4986610;28;8981;-72
2022/08/05 12:57:10;;;;;;;;;1.20;1.20;;;;;;;;4987144;28;9687;-73
2022/08/05 12:59:46;;;;;;;;;0.60;0.60;;;;;;;;4985804;28;8899;-72
2022/08/05 13:02:16;;;;;;;;;2.00;2.00;;;;;;;;4983347;28;8870;-72
2022/08/05 13:04:45;;;;;;;;;0.00;0.00;;;;;;;;4985539;28;8952;-72
2022/08/05 13:07:15;;;;;;;;;1.60;1.60;;;;;;;;4986519;28;8883;-72
2022/08/05 13:09:43;;;;;;;;;1.40;1.40;;;;;;;;4985817;28;9681;-72
2022/08/05 13:12:13;;;;;;;;;1.60;1.60;;;;;;;;4986642;28;8886;-72
2022/08/05 13:14:41;;;;;;;;;1.60;1.60;;;;;;;;4986414;28;8923;-72
2022/08/05 13:17:11;;;;;;;;;1.40;1.40;;;;;;;;4980465;28;8877;-72
2022/08/05 13:19:38;;;;;;;;;1.20;1.20;;;;;;;;4986398;28;8871;-71
2022/08/05 13:22:07;;;;;;;;;1.00;1.00;;;;;;;;4985131;28;8899;-72
2022/08/05 13:24:34;;;;;;;;;1.20;1.20;;;;;;;;4983897;28;8890;-73
2022/08/05 13:27:02;;;;;;;;;4.00;2.00;;;;;;;;4980296;28;8881;-72
2022/08/05 13:29:29;;;;;;;;;1.20;1.20;;;;;;;;4986154;28;8871;-73
2022/08/05 13:31:57;;;;;;;;;4.20;3.00;;;;;;;;4985431;28;8841;-72
2022/08/05 13:34:24;;;;;;;;;2.00;2.00;;;;;;;;4984990;28;8930;-72
2022/08/05 13:36:51;;;;;;;;;2.80;2.80;;;;;;;;4985684;28;8965;-71
2022/08/05 13:39:20;;;;;;;;;5.00;3.00;;;;;;;;4984937;28;8871;-72
2022/08/05 13:41:47;;;;;;;;;2.00;2.00;;;;;;;;4985760;28;8891;-73
2022/08/05 13:44:15;;;;;;;;;1.20;1.20;;;;;;;;4984553;28;8989;-73
2022/08/05 13:46:42;;;;;;;;;3.60;2.00;;;;;;;;4984910;28;9009;-72
2022/08/05 13:49:09;;;;;;;;;1.40;1.40;;;;;;;;4984463;28;8883;-72
2022/08/05 13:51:36;;;;;;;;;2.20;2.20;;;;;;;;4984542;28;9054;-73
2022/08/05 13:54:04;;;;;;;;;1.20;1.20;;;;;;;;4985924;28;9569;-73
2022/08/05 13:56:33;;;;;;;;;1.80;1.80;;;;;;;;4984452;28;8941;-73
2022/08/05 13:59:00;;;;;;;;;1.20;1.20;;;;;;;;4985876;28;9001;-73
2022/08/05 14:01:27;;;;;;;;;2.20;2.20;;;;;;;;4983115;28;8829;-73
2022/08/05 14:06:39;;;;;;;;;3.60;2.00;;;;;;;;4985156;28;8855;-73
2022/08/05 14:09:07;;;;;;;;;3.00;3.00;;;;;;;;4983958;28;8882;-73
2022/08/05 14:11:38;;;;;;;;;2.00;2.00;;;;;;;;4982907;28;8905;-73
2022/08/05 14:14:05;;;;;;;;;1.80;1.80;;;;;;;;4984553;28;8889;-73
2022/08/05 14:16:33;;;;;;;;;2.20;2.20;;;;;;;;4985064;28;8985;-73
2022/08/05 14:19:00;;;;;;;;;2.00;2.00;;;;;;;;4981338;28;8866;-73
2022/08/05 14:21:28;;;;;;;;;1.00;1.00;;;;;;;;4985031;28;9012;-73
2022/08/05 14:23:55;;;;;;;;;2.80;2.80;;;;;;;;4985227;28;8907;-73
2022/08/05 14:26:22;;;;;;;;;2.00;2.00;;;;;;;;4985137;28;8968;-74
2022/08/05 14:28:51;;;;;;;;;5.00;4.00;;;;;;;;4988740;28;8879;-74
2022/08/05 14:31:19;;;;;;;;;2.00;2.00;;;;;;;;4983516;28;8846;-73
2022/08/05 14:33:46;;;;;;;;;2.60;2.60;;;;;;;;4984994;28;9393;-72
2022/08/05 14:36:13;;;;;;;;;2.20;2.20;;;;;;;;4984142;28;8894;-73
2022/08/05 14:38:40;;;;;;;;;3.40;2.20;;;;;;;;4984409;28;8875;-73
2022/08/05 14:41:08;;;;;;;;;2.00;2.00;;;;;;;;4984866;28;8871;-73
2022/08/05 14:43:36;;;;;;;;;3.00;3.00;;;;;;;;4983475;28;8886;-73
2022/08/05 14:46:05;;;;;;;;;2.00;2.00;;;;;;;;4985039;28;8905;-73
2022/08/05 14:48:33;;;;;;;;;2.00;2.00;;;;;;;;4983604;28;8981;-73
2022/08/05 14:51:00;;;;;;;;;2.00;2.00;;;;;;;;4984721;28;8878;-73
2022/08/05 14:53:30;;;;;;;;;0.80;0.80;;;;;;;;4983260;28;8899;-73
2022/08/05 14:55:58;;;;;;;;;2.00;2.00;;;;;;;;4984393;28;8879;-74
2022/08/05 14:58:25;;;;;;;;;2.20;2.20;;;;;;;;4983333;28;8855;-74
2022/08/05 15:00:52;;;;;;;;;2.80;2.80;;;;;;;;4983313;28;8815;-74
2022/08/05 15:03:21;;;;;;;;;2.40;2.40;;;;;;;;4984034;28;8893;-73
2022/08/05 15:05:48;;;;;;;;;2.00;2.00;;;;;;;;4983680;28;9292;-73
2022/08/05 15:08:15;;;;;;;;;2.00;2.00;;;;;;;;4984142;28;9029;-73
2022/08/05 15:10:43;;;;;;;;;0.20;0.20;;;;;;;;4982941;28;8863;-74
2022/08/05 15:13:10;;;;;;;;;0.80;0.80;;;;;;;;4984356;28;9374;-74
2022/08/05 15:15:37;;;;;;;;;1.00;1.00;;;;;;;;4984177;28;8863;-74
2022/08/05 15:18:05;;;;;;;;;1.20;1.20;;;;;;;;4983593;28;8879;-74
2022/08/05 15:20:34;;;;;;;;;2.40;1.00;;;;;;;;4984325;28;8961;-74
2022/08/05 15:23:04;;;;;;;;;2.00;2.00;;;;;;;;4983107;28;9681;-73
2022/08/05 15:25:31;;;;;;;;;3.40;1.00;;;;;;;;4983165;28;8994;-73
2022/08/05 15:27:58;;;;;;;;;2.00;2.00;;;;;;;;4983488;28;8933;-74
2022/08/05 15:30:27;;;;;;;;;1.00;1.00;;;;;;;;4983437;28;8817;-73
2022/08/05 15:32:55;;;;;;;;;1.60;1.60;;;;;;;;4982664;28;8867;-74
2022/08/05 15:35:22;;;;;;;;;1.00;1.00;;;;;;;;4983397;28;8894;-72
2022/08/05 15:37:51;;;;;;;;;2.60;1.00;;;;;;;;4984237;28;8871;-72
2022/08/05 15:40:18;;;;;;;;;0.00;0.00;;;;;;;;4982830;28;8969;-73
2022/08/05 15:42:45;;;;;;;;;1.00;1.00;;;;;;;;4984449;28;8894;-73
2022/08/05 15:45:13;;;;;;;;;0.00;0.00;;;;;;;;4982816;28;8875;-73
2022/08/05 15:47:41;;;;;;;;;1.00;1.00;;;;;;;;4983611;28;8961;-74
2022/08/05 15:50:10;;;;;;;;;1.20;1.20;;;;;;;;4983339;28;8858;-74
2022/08/05 15:52:37;;;;;;;;;0.00;0.00;;;;;;;;4983282;28;8887;-73
2022/08/05 15:55:12;;;;;;;;;1.00;1.00;;;;;;;;4983652;28;8997;-73
2022/08/05 15:57:40;;;;;;;;;0.20;0.20;;;;;;;;4983375;28;9567;-73
2022/08/05 16:00:09;;;;;;;;;0.40;0.40;;;;;;;;4982243;28;8863;-72
2022/08/05 16:02:36;;;;;;;;;0.80;0.80;;;;;;;;4981455;28;8978;-73
2022/08/05 16:05:04;;;;;;;;;0.00;0.00;;;;;;;;4983633;28;8893;-73
2022/08/05 16:07:32;;;;;;;;;1.60;1.60;;;;;;;;4983205;28;9606;-73
2022/08/05 16:10:00;;;;;;;;;1.40;1.00;;;;;;;;4987299;28;8877;-73
2022/08/05 16:12:31;;;;;;;;;0.00;0.00;;;;;;;;4987549;28;8895;-72
2022/08/05 16:14:59;;;;;;;;;1.00;1.00;;;;;;;;4985201;28;9638;-72
2022/08/05 16:17:29;;;;;;;;;1.00;1.00;;;;;;;;4984359;28;8958;-72
2022/08/05 16:19:57;;;;;;;;;0.00;0.00;;;;;;;;4986286;28;8886;-73
2022/08/05 16:22:25;;;;;;;;;0.00;0.00;;;;;;;;4987545;28;8871;-73
2022/08/05 16:24:52;;;;;;;;;0.00;0.00;;;;;;;;4975999;28;9367;-73
2022/08/05 16:27:19;;;;;;;;;3.40;3.40;;;;;;;;4987446;28;8864;-73
2022/08/05 16:29:48;;;;;;;;;7.40;7.40;;;;;;;;4987558;28;8871;-74
2022/08/05 16:32:15;;;;;;;;;8.00;6.00;;;;;;;;4985510;28;8831;-74
2022/08/05 16:34:42;;;;;;;;;3.80;3.80;;;;;;;;4987489;28;8879;-74
2022/08/05 16:37:09;;;;;;;;;4.00;4.00;;;;;;;;4985663;28;8910;-74
2022/08/05 16:39:37;;;;;;;;;4.80;3.60;;;;;;;;4987212;28;9011;-74
2022/08/05 16:42:04;;;;;;;;;3.40;3.40;;;;;;;;4985835;28;8886;-73
2022/08/05 16:44:31;;;;;;;;;6.60;4.60;;;;;;;;4985930;28;8894;-73
2022/08/05 16:47:00;;;;;;;;;2.00;2.00;;;;;;;;4985884;28;8866;-73
2022/08/05 16:49:27;;;;;;;;;2.40;2.00;;;;;;;;4983609;28;8874;-73
2022/08/05 16:51:54;;;;;;;;;4.60;4.60;;;;;;;;4986045;28;8866;-73
2022/08/05 16:54:21;;;;;;;;;5.60;5.60;;;;;;;;4985517;28;8936;-73
2022/08/05 16:56:49;;;;;;;;;8.60;8.20;;;;;;;;4985712;28;8889;-73
2022/08/05 16:59:16;;;;;;;;;4.00;4.00;;;;;;;;4985815;28;8871;-73
2022/08/05 17:01:43;;;;;;;;;3.00;1.00;;;;;;;;4984667;28;8815;-72
2022/08/05 17:04:12;;;;;;;;;1.40;1.40;;;;;;;;4986020;28;8901;-73